Alpine, New Jersey
Current Conditions -  °F | °C
As of 2:51 AM on Saturday 20 Dec 2014 (Local Time) from KTEB Reporting Station
Overcast Overcast  
Wind Chill: -3°   Ceiling: 2800
Heat Index:   Visibility: 10mi
Dew Point: -7°   Wind: 6mph
Humidity: 61%   Direction: 30°NNE
Pressure: 30.2"   Gusts: NA
Location:  40.96°N, 73.93°W
Report Text: KTEB 200751Z 03005KT 10SM OVC028 00/M07 A3020 RMK AO2 SLP226 T00001067
Loading
Personal Weather Stations






























Interactive Weather Map New forecast layout! Learn more

10-Day Weather Forecast

Advertisements
Track Severe Weather on mobile